createdAt,value
2022-09-28T00:01:41.028Z,98086.53
2022-09-28T00:04:29.475Z,98077.13
2022-09-28T00:07:17.876Z,98067.97
2022-09-28T00:10:07.422Z,98061.66
2022-09-28T00:12:56.252Z,98073.63
2022-09-28T00:15:44.584Z,98065.03
2022-09-28T00:18:34.504Z,98067.75
2022-09-28T00:21:24.175Z,98062.59
2022-09-28T00:24:15.207Z,98046.28
2022-09-28T00:27:04.124Z,98040.31
2022-09-28T00:29:52.644Z,98042.88
2022-09-28T00:32:41.074Z,98035.16
2022-09-28T00:35:32.637Z,98035.16
2022-09-28T00:38:22.008Z,98034.44
2022-09-28T00:41:11.670Z,98031.28
2022-09-28T00:44:40.458Z,98029.75
2022-09-28T00:47:41.814Z,98023.66
2022-09-28T00:50:32.914Z,98023.41
2022-09-28T00:53:22.731Z,98018.97
2022-09-28T00:56:12.657Z,98014.66
2022-09-28T00:59:01.201Z,98006.91
2022-09-28T01:01:49.677Z,98001.59
2022-09-28T01:04:38.748Z,97995.53
2022-09-28T01:07:29.046Z,97997.16
2022-09-28T01:10:18.278Z,97993.66
2022-09-28T01:13:06.721Z,97982.38
2022-09-28T01:16:00.455Z,97962.56
2022-09-28T01:18:55.965Z,97959.19
2022-09-28T01:21:50.803Z,97959.88
2022-09-28T01:24:43.414Z,97953.09
2022-09-28T01:27:34.138Z,97943.09
2022-09-28T01:30:22.743Z,97936.91
2022-09-28T01:33:14.011Z,97936.66
2022-09-28T01:36:07.114Z,97929.63
2022-09-28T01:38:57.205Z,97930.34
2022-09-28T01:41:47.188Z,97931.03
2022-09-28T01:44:39.878Z,97920.72
2022-09-28T01:47:30.239Z,97922.25
2022-09-28T01:50:21.008Z,97914.50
2022-09-28T01:53:13.282Z,97911.09
2022-09-28T01:56:06.236Z,97908.53
2022-09-28T01:58:56.282Z,97912.63
2022-09-28T02:01:49.760Z,97921.88
2022-09-28T02:04:40.783Z,97912.38
2022-09-28T02:07:35.294Z,97892.56
2022-09-28T02:10:25.683Z,97896.78
2022-09-28T02:13:17.245Z,97886.47
2022-09-28T02:16:09.775Z,97895.72
2022-09-28T02:19:00.223Z,97894.78
2022-09-28T02:21:55.057Z,97902.41
2022-09-28T02:24:47.711Z,97901.25
2022-09-28T02:27:45.543Z,97902.88
2022-09-28T02:30:37.098Z,97888.09
2022-09-28T02:33:29.308Z,97876.72
2022-09-28T02:36:19.075Z,97870.50
2022-09-28T02:39:14.395Z,97873.09
2022-09-28T02:42:08.610Z,97864.38
2022-09-28T02:45:07.508Z,97881.75
2022-09-28T02:48:04.531Z,97888.69
2022-09-28T02:51:00.457Z,97883.50
2022-09-28T02:54:32.490Z,97877.53
2022-09-28T02:57:31.710Z,97873.31
2022-09-28T03:00:20.690Z,97872.38
2022-09-28T03:03:13.699Z,97872.22
2022-09-28T03:06:04.791Z,97871.31
2022-09-28T03:09:04.061Z,97866.25
2022-09-28T03:11:56.995Z,97861.81
2022-09-28T03:14:46.219Z,97866.03
2022-09-28T03:17:34.728Z,97866.84
2022-09-28T03:20:23.193Z,97861.81
2022-09-28T03:23:26.890Z,97861.69
2022-09-28T03:26:16.857Z,97868.63
2022-09-28T03:29:05.288Z,97868.38
2022-09-28T03:31:53.802Z,97870.00
2022-09-28T03:34:42.855Z,97868.13
2022-09-28T03:37:31.455Z,97867.41
2022-09-28T03:40:22.105Z,97870.84
2022-09-28T03:43:11.866Z,97877.63
2022-09-28T03:46:02.247Z,97870.84
2022-09-28T03:48:53.320Z,97867.31
2022-09-28T03:51:41.738Z,97870.00
2022-09-28T03:54:30.522Z,97868.38
2022-09-28T03:57:18.934Z,97864.03
2022-09-28T04:00:11.180Z,97860.50
2022-09-28T04:03:02.240Z,97864.72
2022-09-28T04:05:51.071Z,97869.06
2022-09-28T04:08:39.499Z,97870.59
2022-09-28T04:11:34.957Z,97870.69
2022-09-28T04:14:31.314Z,97876.13
2022-09-28T04:17:21.126Z,97876.22
2022-09-28T04:20:10.564Z,97875.41
2022-09-28T04:23:02.084Z,97881.97
2022-09-28T04:25:53.488Z,97874.22
2022-09-28T04:29:04.005Z,97879.41
2022-09-28T04:31:55.117Z,97879.50
2022-09-28T04:34:56.361Z,97873.78
2022-09-28T04:37:44.733Z,97880.13
2022-09-28T04:40:33.219Z,97881.28
2022-09-28T04:43:21.871Z,97875.78
2022-09-28T04:46:10.940Z,97876.38
2022-09-28T04:49:05.444Z,97879.09
2022-09-28T04:52:07.376Z,97887.75
2022-09-28T04:54:56.621Z,97884.09
2022-09-28T04:57:46.412Z,97876.50
2022-09-28T05:00:35.535Z,97879.91
2022-09-28T05:03:34.002Z,97880.00
2022-09-28T05:06:51.637Z,97885.06
2022-09-28T05:09:41.438Z,97885.75
2022-09-28T05:12:29.953Z,97890.94
2022-09-28T05:15:18.612Z,97895.84
2022-09-28T05:18:09.368Z,97900.88
2022-09-28T05:21:12.672Z,97907.69
2022-09-28T05:24:07.240Z,97899.94
2022-09-28T05:26:58.502Z,97905.94
2022-09-28T05:29:46.928Z,97900.78
2022-09-28T05:32:54.287Z,97905.94
2022-09-28T05:36:03.722Z,97905.94
2022-09-28T05:38:52.223Z,97904.28
2022-09-28T05:41:41.258Z,97917.31
2022-09-28T05:44:31.053Z,97920.94
2022-09-28T05:47:19.421Z,97927.16
2022-09-28T05:50:11.579Z,97920.47
2022-09-28T05:53:01.692Z,97927.50
2022-09-28T05:55:50.107Z,97930.91
2022-09-28T05:58:38.677Z,97933.28
2022-09-28T06:01:28.575Z,97937.38
2022-09-28T06:04:19.398Z,97939.59
2022-09-28T06:07:09.581Z,97939.50
2022-09-28T06:09:58.593Z,97941.13
2022-09-28T06:13:01.089Z,97937.97
2022-09-28T06:15:51.783Z,97943.94
2022-09-28T06:18:42.337Z,97946.16
2022-09-28T06:21:43.441Z,97946.75
2022-09-28T06:24:31.973Z,97950.16
2022-09-28T06:27:20.421Z,97950.03
2022-09-28T06:30:09.696Z,97954.94
2022-09-28T06:32:59.510Z,97967.72
2022-09-28T06:35:49.823Z,97961.06
2022-09-28T06:38:38.548Z,97963.28
2022-09-28T06:41:27.152Z,97962.63
2022-09-28T06:44:15.672Z,97960.59
2022-09-28T06:47:22.717Z,97961.81
2022-09-28T06:50:35.919Z,97965.63
2022-09-28T06:53:36.609Z,97964.47
2022-09-28T06:56:38.685Z,97962.88
2022-09-28T06:59:27.076Z,97964.47
2022-09-28T07:02:15.982Z,97974.69
2022-09-28T07:05:04.510Z,97973.13
2022-09-28T07:08:11.916Z,97980.84
2022-09-28T07:11:11.078Z,97980.22
2022-09-28T07:14:05.881Z,97984.50
2022-09-28T07:17:12.568Z,97993.81
2022-09-28T07:20:14.789Z,97993.03
2022-09-28T07:23:18.317Z,98000.53
2022-09-28T07:26:28.081Z,98004.34
2022-09-28T07:29:23.324Z,98009.03
2022-09-28T07:32:19.074Z,98006.16
2022-09-28T07:35:19.839Z,98008.78
2022-09-28T07:38:12.074Z,98025.81
2022-09-28T07:41:13.926Z,98029.88
2022-09-28T07:44:09.747Z,98024.38
2022-09-28T07:47:02.078Z,98043.53
2022-09-28T07:50:13.160Z,98032.69
2022-09-28T07:53:14.492Z,98042.84
2022-09-28T07:56:17.169Z,98056.38
2022-09-28T07:59:36.361Z,98053.09
2022-09-28T08:02:43.220Z,98055.00
2022-09-28T08:05:32.143Z,98071.06
2022-09-28T08:08:20.738Z,98072.75
2022-09-28T08:11:10.538Z,98070.81
2022-09-28T08:14:19.478Z,98068.28
2022-09-28T08:17:27.030Z,98080.66
2022-09-28T08:20:38.317Z,98087.22
2022-09-28T08:23:26.728Z,98084.22
2022-09-28T08:26:16.111Z,98085.03
2022-09-28T08:29:06.161Z,98083.63
2022-09-28T08:32:08.260Z,98087.69
2022-09-28T08:34:57.974Z,98090.66
2022-09-28T08:38:03.345Z,98103.63
2022-09-28T08:41:20.179Z,98100.28
2022-09-28T08:44:25.308Z,98113.25
2022-09-28T08:48:06.733Z,98110.41
2022-09-28T08:51:06.402Z,98107.66
2022-09-28T08:54:11.063Z,98105.41
2022-09-28T08:57:32.084Z,98109.91
2022-09-28T09:00:23.312Z,98114.03
2022-09-28T09:03:14.097Z,98120.97
2022-09-28T09:06:11.911Z,98122.88
2022-09-28T09:09:37.969Z,98124.06
2022-09-28T09:12:31.782Z,98123.94
2022-09-28T09:15:41.616Z,98122.44
2022-09-28T09:18:53.485Z,98123.88
2022-09-28T09:22:01.461Z,98125.31
2022-09-28T09:24:51.323Z,98129.47
2022-09-28T09:27:54.697Z,98128.47
2022-09-28T09:30:48.266Z,98126.25
2022-09-28T09:33:57.278Z,98134.84
2022-09-28T09:37:27.463Z,98136.91
2022-09-28T09:40:55.996Z,98128.78
2022-09-28T09:44:38.853Z,98122.16
2022-09-28T09:47:57.538Z,98126.97
2022-09-28T09:50:49.775Z,98124.38
2022-09-28T09:53:42.778Z,98127.22
2022-09-28T09:56:36.178Z,98131.00
2022-09-28T10:00:00.142Z,98134.75
2022-09-28T10:03:02.995Z,98138.91
2022-09-28T10:06:04.429Z,98134.94
2022-09-28T10:09:01.944Z,98135.94
2022-09-28T10:11:52.048Z,98132.94
2022-09-28T10:14:40.954Z,98128.88
2022-09-28T10:17:30.584Z,98131.38
2022-09-28T10:20:39.581Z,98127.84
2022-09-28T10:23:37.848Z,98131.88
2022-09-28T10:26:31.184Z,98133.13
2022-09-28T10:29:22.456Z,98136.03
2022-09-28T10:32:22.965Z,98121.50
2022-09-28T10:35:24.890Z,98133.28
2022-09-28T10:38:18.954Z,98130.97
2022-09-28T10:41:20.431Z,98133.94
2022-09-28T10:44:17.813Z,98134.13
2022-09-28T10:47:26.954Z,98125.59
2022-09-28T10:50:21.374Z,98134.81
2022-09-28T10:53:20.326Z,98115.69
2022-09-28T10:56:24.370Z,98129.44
2022-09-28T10:59:42.957Z,98121.00
2022-09-28T11:02:55.171Z,98128.84
2022-09-28T11:05:45.043Z,98119.16
2022-09-28T11:08:36.933Z,98121.81
2022-09-28T11:11:25.715Z,98121.91
2022-09-28T11:14:27.306Z,98119.34
2022-09-28T11:17:27.268Z,98122.75
2022-09-28T11:20:35.710Z,98121.63
2022-09-28T11:23:31.754Z,98120.22
2022-09-28T11:26:39.451Z,98120.03
2022-09-28T11:29:38.131Z,98122.34
2022-09-28T11:32:46.553Z,98120.72
2022-09-28T11:35:47.507Z,98124.06
2022-09-28T11:38:40.837Z,98129.41
2022-09-28T11:41:49.037Z,98121.59
2022-09-28T11:44:44.682Z,98129.50
2022-09-28T11:47:52.507Z,98117.91
2022-09-28T11:50:47.890Z,98115.09
2022-09-28T11:53:38.248Z,98117.00
2022-09-28T11:56:33.725Z,98119.38
2022-09-28T11:59:27.604Z,98123.28
2022-09-28T12:02:22.064Z,98137.28
2022-09-28T12:05:21.385Z,98131.44
2022-09-28T12:08:16.843Z,98140.25
2022-09-28T12:11:36.655Z,98146.13
2022-09-28T12:14:40.848Z,98143.56
2022-09-28T12:17:33.457Z,98138.03
2022-09-28T12:20:26.557Z,98139.13
2022-09-28T12:23:17.126Z,98140.75
2022-09-28T12:26:07.174Z,98134.75
2022-09-28T12:28:57.527Z,98132.28
2022-09-28T12:31:58.879Z,98140.88
2022-09-28T12:34:47.297Z,98138.97
2022-09-28T12:37:54.541Z,98132.97
2022-09-28T12:40:49.643Z,98143.50
2022-09-28T12:43:49.470Z,98137.34
2022-09-28T12:46:50.772Z,98126.28
2022-09-28T12:53:19.365Z,98140.22
2022-09-28T12:56:16.760Z,98136.94
2022-09-28T12:59:19.686Z,98126.72
2022-09-28T13:02:32.600Z,98128.75
2022-09-28T13:05:32.336Z,98131.78
2022-09-28T13:08:25.729Z,98129.47
2022-09-28T13:11:18.894Z,98129.59
2022-09-28T13:14:35.801Z,98131.75
2022-09-28T13:17:31.355Z,98127.91
2022-09-28T13:20:30.109Z,98127.56
2022-09-28T13:23:22.527Z,98121.25
2022-09-28T13:26:18.180Z,98121.56
2022-09-28T13:29:13.081Z,98121.00
2022-09-28T13:32:02.167Z,98121.69
2022-09-28T13:34:50.560Z,98126.78
2022-09-28T13:37:39.060Z,98129.78
2022-09-28T13:41:12.646Z,98132.00
2022-09-28T13:44:44.819Z,98121.59
2022-09-28T13:47:46.333Z,98121.91
2022-09-28T13:50:44.521Z,98118.34
2022-09-28T13:53:42.627Z,98110.94
2022-09-28T13:56:39.186Z,98123.09
2022-09-28T13:59:28.907Z,98120.59
2022-09-28T14:02:26.082Z,98111.88
2022-09-28T14:05:36.867Z,98121.97
2022-09-28T14:08:33.593Z,98122.53
2022-09-28T14:11:58.108Z,98126.00
2022-09-28T14:14:50.454Z,98134.63
2022-09-28T14:18:10.879Z,98124.66
2022-09-28T14:21:24.122Z,98124.78
2022-09-28T14:24:28.519Z,98146.28
2022-09-28T14:27:55.689Z,98140.16
2022-09-28T14:30:49.384Z,98140.19
2022-09-28T14:33:39.185Z,98147.47
2022-09-28T14:36:47.257Z,98139.41
2022-09-28T14:39:53.660Z,98147.34
2022-09-28T14:42:45.822Z,98146.78
2022-09-28T14:45:36.328Z,98146.66
2022-09-28T14:48:48.920Z,98144.59
2022-09-28T14:52:05.222Z,98151.03
2022-09-28T14:54:54.468Z,98159.13
2022-09-28T14:57:44.387Z,98155.53
2022-09-28T15:00:32.956Z,98152.44
2022-09-28T15:03:21.560Z,98158.44
2022-09-28T15:06:15.858Z,98161.72
2022-09-28T15:09:04.465Z,98160.50
2022-09-28T15:11:57.812Z,98161.00
2022-09-28T15:14:52.574Z,98158.84
2022-09-28T15:17:41.528Z,98168.13
2022-09-28T15:20:30.398Z,98156.75
2022-09-28T15:23:27.595Z,98165.09
2022-09-28T15:26:24.451Z,98168.91
2022-09-28T15:29:17.965Z,98159.63
2022-09-28T15:32:07.765Z,98166.16
2022-09-28T15:34:57.085Z,98168.22
2022-09-28T15:37:45.722Z,98174.53
2022-09-28T15:40:36.712Z,98165.91
2022-09-28T15:43:29.069Z,98163.19
2022-09-28T15:46:23.107Z,98161.00
2022-09-28T15:49:23.741Z,98167.03
2022-09-28T15:52:24.972Z,98168.28
2022-09-28T15:55:23.665Z,98172.94
2022-09-28T15:58:18.681Z,98169.78
2022-09-28T16:01:35.747Z,98176.72
2022-09-28T16:04:40.277Z,98179.44
2022-09-28T16:07:34.283Z,98186.09
2022-09-28T16:10:33.452Z,98185.53
2022-09-28T16:13:23.851Z,98182.53
2022-09-28T16:16:15.800Z,98183.03
2022-09-28T16:19:04.393Z,98187.13
2022-09-28T16:21:56.296Z,98191.22
2022-09-28T16:24:44.770Z,98191.72
2022-09-28T16:27:41.955Z,98187.06
2022-09-28T16:30:32.353Z,98190.19
2022-09-28T16:33:29.014Z,98197.09
2022-09-28T16:36:18.262Z,98193.19
2022-09-28T16:39:08.419Z,98201.28
2022-09-28T16:42:01.709Z,98202.53
2022-09-28T16:44:50.168Z,98203.09
2022-09-28T16:47:39.426Z,98214.97
2022-09-28T16:50:27.826Z,98209.63
2022-09-28T16:53:34.885Z,98211.09
2022-09-28T16:56:24.551Z,98214.16
2022-09-28T16:59:13.958Z,98210.91
2022-09-28T17:02:02.611Z,98217.00
2022-09-28T17:04:51.334Z,98217.72
2022-09-28T17:07:39.677Z,98225.50
2022-09-28T17:10:41.204Z,98225.63
2022-09-28T17:13:43.972Z,98223.50
2022-09-28T17:19:41.472Z,98237.78
2022-09-28T17:22:29.962Z,98237.66
2022-09-28T17:25:18.531Z,98239.94
2022-09-28T17:28:06.993Z,98236.28
2022-09-28T17:30:56.765Z,98239.53
2022-09-28T17:33:46.000Z,98242.19
2022-09-28T17:36:34.389Z,98254.81
2022-09-28T17:39:24.933Z,98253.00
2022-09-28T17:42:13.400Z,98258.91
2022-09-28T17:45:01.772Z,98261.44
2022-09-28T17:47:51.587Z,98263.22
2022-09-28T17:50:44.338Z,98256.47
2022-09-28T17:53:34.590Z,98260.09
2022-09-28T17:56:23.203Z,98262.72
2022-09-28T17:59:14.840Z,98268.66
2022-09-28T18:02:03.318Z,98268.34
2022-09-28T18:04:53.536Z,98277.44
2022-09-28T18:07:47.288Z,98292.56
2022-09-28T18:10:36.015Z,98289.56
2022-09-28T18:13:24.617Z,98288.66
2022-09-28T18:16:13.116Z,98287.22
2022-09-28T18:19:01.588Z,98288.25
2022-09-28T18:21:52.281Z,98287.34
2022-09-28T18:24:41.015Z,98286.22
2022-09-28T18:27:30.158Z,98284.13
2022-09-28T18:30:18.926Z,98280.66
2022-09-28T18:33:07.496Z,98282.50
2022-09-28T18:35:55.984Z,98286.81
2022-09-28T18:38:45.797Z,98283.50
2022-09-28T18:41:34.207Z,98284.34
2022-09-28T18:44:22.683Z,98297.97
2022-09-28T18:47:14.997Z,98291.97
2022-09-28T18:50:03.804Z,98296.28
2022-09-28T18:52:52.235Z,98296.28
2022-09-28T18:55:42.986Z,98291.03
2022-09-28T18:58:31.472Z,98298.78
2022-09-28T19:01:36.266Z,98296.28
2022-09-28T19:04:24.914Z,98300.97
2022-09-28T19:07:13.484Z,98300.03
2022-09-28T19:10:01.957Z,98311.97
2022-09-28T19:12:52.207Z,98308.72
2022-09-28T19:15:40.587Z,98311.16
2022-09-28T19:18:31.799Z,98309.31
2022-09-28T19:21:20.321Z,98312.53
2022-09-28T19:24:08.697Z,98312.38
2022-09-28T19:26:57.087Z,98311.25
2022-09-28T19:29:47.018Z,98312.81
2022-09-28T19:32:35.361Z,98313.44
2022-09-28T19:35:23.861Z,98319.31
2022-09-28T19:38:12.332Z,98313.34
2022-09-28T19:41:01.038Z,98323.53
2022-09-28T19:43:50.037Z,98321.06
2022-09-28T19:46:40.360Z,98322.19
2022-09-28T19:49:32.947Z,98322.59
2022-09-28T19:52:21.308Z,98325.41
2022-09-28T19:55:10.567Z,98337.66
2022-09-28T19:58:00.139Z,98338.78
2022-09-28T20:00:48.564Z,98333.91
2022-09-28T20:03:38.845Z,98342.59
2022-09-28T20:06:27.864Z,98346.19
2022-09-28T20:09:16.392Z,98347.09
2022-09-28T20:12:05.013Z,98346.38
2022-09-28T20:14:54.232Z,98343.09
2022-09-28T20:17:42.671Z,98352.66
2022-09-28T20:20:32.534Z,98354.41
2022-09-28T20:23:21.650Z,98357.09
2022-09-28T20:26:10.443Z,98357.09
2022-09-28T20:28:58.937Z,98355.38
2022-09-28T20:31:47.377Z,98358.75
2022-09-28T20:34:35.820Z,98363.09
2022-09-28T20:37:26.309Z,98357.09
2022-09-28T20:40:14.918Z,98362.97
2022-09-28T20:43:03.361Z,98366.41
2022-09-28T20:45:52.064Z,98367.94
2022-09-28T20:48:40.637Z,98367.72
2022-09-28T20:51:29.065Z,98376.41
2022-09-28T20:54:19.037Z,98380.47
2022-09-28T20:57:17.462Z,98376.13
2022-09-28T21:00:07.802Z,98369.63
2022-09-28T21:02:56.245Z,98367.84
2022-09-28T21:05:45.174Z,98373.81
2022-09-28T21:08:33.675Z,98369.47
2022-09-28T21:11:24.482Z,98368.63
2022-09-28T21:14:12.925Z,98366.09
2022-09-28T21:17:01.406Z,98367.06
2022-09-28T21:19:49.839Z,98367.47
2022-09-28T21:22:38.276Z,98376.13
2022-09-28T21:25:26.723Z,98364.53
2022-09-28T21:28:17.309Z,98363.28
2022-09-28T21:31:07.652Z,98363.06
2022-09-28T21:33:56.234Z,98368.59
2022-09-28T21:36:44.690Z,98365.78
2022-09-28T21:39:33.070Z,98365.44
2022-09-28T21:42:21.544Z,98356.53
2022-09-28T21:45:11.869Z,98354.44
2022-09-28T21:48:00.330Z,98357.75
2022-09-28T21:50:57.155Z,98356.09
2022-09-28T21:53:45.528Z,98361.28
2022-09-28T21:56:33.892Z,98353.63
2022-09-28T21:59:22.363Z,98358.94
2022-09-28T22:02:12.159Z,98366.06
2022-09-28T22:05:00.597Z,98360.28
2022-09-28T22:07:49.382Z,98367.31
2022-09-28T22:10:37.879Z,98374.16
2022-09-28T22:13:26.331Z,98371.81
2022-09-28T22:16:15.777Z,98368.50
2022-09-28T22:19:05.702Z,98363.34
2022-09-28T22:21:54.109Z,98373.78
2022-09-28T22:24:42.472Z,98371.28
2022-09-28T22:27:32.847Z,98372.00
2022-09-28T22:30:21.392Z,98372.09
2022-09-28T22:33:09.830Z,98372.00
2022-09-28T22:35:59.573Z,98366.03
2022-09-28T22:38:48.049Z,98369.41
2022-09-28T22:41:36.553Z,98365.78
2022-09-28T22:44:25.483Z,98370.63
2022-09-28T22:47:13.951Z,98359.38
2022-09-28T22:50:02.325Z,98368.97
2022-09-28T22:52:52.039Z,98364.97
2022-09-28T22:55:41.694Z,98366.13
2022-09-28T22:58:30.122Z,98368.00
2022-09-28T23:01:19.782Z,98368.22
2022-09-28T23:04:09.917Z,98361.53
2022-09-28T23:06:58.385Z,98364.31
2022-09-28T23:09:48.160Z,98369.06
2022-09-28T23:12:36.562Z,98367.84
2022-09-28T23:15:25.982Z,98377.78
2022-09-28T23:18:14.492Z,98377.41
2022-09-28T23:21:04.361Z,98373.38
2022-09-28T23:23:54.352Z,98379.19
2022-09-28T23:26:44.174Z,98374.91
2022-09-28T23:29:32.580Z,98375.88
2022-09-28T23:32:21.050Z,98374.94
2022-09-28T23:35:09.826Z,98378.97
2022-09-28T23:37:58.296Z,98372.69
2022-09-28T23:40:46.971Z,98376.53
2022-09-28T23:43:37.115Z,98371.91
2022-09-28T23:46:25.773Z,98369.00
2022-09-28T23:49:14.509Z,98375.53
2022-09-28T23:52:03.186Z,98373.34
2022-09-28T23:54:51.573Z,98372.00
2022-09-28T23:57:41.148Z,98371.75
